Startpagina
METAR-TAF:

METAR-TAF

Vliegvelden :

Xi'an, China

Internationale luchthaven Xi'an Xianyang

breedte: 34-26N, lengte: 108-45E, hoogte: 479 m

Actueel weer

Dit bericht is 20 minuten geleden gemaakt, om 23:00 UTC
Wind 4 kt uit het westzuidwesten
Temperatuur 12°C
Vochtigheid 100%
Druk 1020 hPa
Zicht 10 km of meer
geen wolken onder 1500 m en geen cumulonimbus

METAR: ZLXY 222300Z 24002MPS CAVOK 12/12 Q1020 NOSIG

Tijdstip: 07:20 (23:20 UTC)

Verwachting

Dit bericht is 8 uur en het 11 minuten geleden gemaakt, om 15:09 UTC
Verwachting geldig van 22 om 18 UTC tot 23 om 18 UTC
Wind 6 kt uit het westen
Zicht: 6000 m

TAF: ZLXY 221509Z 2218/2318 27003MPS 6000 NSC TX26/2307Z TN12/2221Z

Waarnemingen en weersverwachtingen van meer dan 4000 vliegvelden (METAR en TAF).

De beschikbare stations zijn de gele en rode punten op de kaart.

Ga met uw muis naar het station om de naam te zien.

Klik dan om waarnemingen en weersverwachtingen te zien.

kaart wijzigen: klik op de groene knoppen met een zwart kruis om in te zoomen, op de groene knop met een streepje om uit te zoomen of op de groene pijlen voor aangrenzende kaarten.


METAR-TAF: